Time;durP1;ratioP1;P1;durP2;ratioP2;P2;SDS_P1;SDS_P2;PMS_P1;PMS_P2;Temp;Humidity;BMP_temperature;BMP_pressure;BME280_temperature;BME280_humidity;BME280_pressure;Samples;Min_cycle;Max_cycle;Signal;HPM_P1;HPM_P2
2023/06/16 00:01:41;;;;;;;7.28;3.70;;;14.80;97.30;;;;;;5123335;27;20027;-64
2023/06/16 00:04:08;;;;;;;6.45;3.40;;;14.70;97.50;;;;;;5118182;27;20039;-64
2023/06/16 00:06:34;;;;;;;4.53;3.80;;;14.60;97.70;;;;;;5140654;27;20054;-66
2023/06/16 00:09:03;;;;;;;7.82;3.20;;;14.60;97.90;;;;;;5123867;27;20069;-65
2023/06/16 00:11:29;;;;;;;11.25;3.58;;;14.60;98.30;;;;;;5138963;27;20039;-65
2023/06/16 00:13:56;;;;;;;6.65;3.60;;;14.50;98.60;;;;;;5118054;27;20038;-66
2023/06/16 00:16:23;;;;;;;5.00;3.28;;;14.50;98.80;;;;;;5131182;27;20037;-64
2023/06/16 00:18:51;;;;;;;6.07;3.17;;;14.50;98.70;;;;;;5117941;27;20134;-66
2023/06/16 00:21:37;;;;;;;5.90;3.50;;;14.40;98.60;;;;;;5125720;27;20481;-66
2023/06/16 00:24:06;;;;;;;4.55;2.95;;;14.30;99.00;;;;;;5127307;27;20035;-66
2023/06/16 00:26:32;;;;;;;5.07;3.45;;;14.30;99.20;;;;;;5144561;27;20078;-64
2023/06/16 00:28:57;;;;;;;5.22;3.38;;;14.20;99.50;;;;;;5122066;27;20042;-66
2023/06/16 00:31:25;;;;;;;4.93;3.42;;;14.20;99.80;;;;;;5117129;27;20031;-65
2023/06/16 00:33:52;;;;;;;5.25;3.10;;;14.20;99.90;;;;;;5140695;27;20095;-64
2023/06/16 00:36:17;;;;;;;9.63;3.50;;;14.10;99.90;;;;;;5121410;27;20072;-64
2023/06/16 00:38:43;;;;;;;8.23;3.65;;;14.10;99.90;;;;;;5122482;27;20043;-63
2023/06/16 00:41:09;;;;;;;7.78;3.95;;;14.10;99.90;;;;;;5114546;27;20047;-65
2023/06/16 00:43:35;;;;;;;7.07;3.70;;;14.00;99.90;;;;;;5128859;27;20042;-64
2023/06/16 00:46:00;;;;;;;8.00;4.07;;;14.00;99.90;;;;;;5131219;27;20045;-65
2023/06/16 00:48:27;;;;;;;8.18;3.50;;;13.90;99.90;;;;;;5113384;27;20070;-64
2023/06/16 00:50:54;;;;;;;6.68;3.35;;;13.90;99.90;;;;;;5113836;27;20039;-65
2023/06/16 00:53:21;;;;;;;7.28;3.30;;;13.90;99.90;;;;;;5122931;27;20135;-65
2023/06/16 00:55:47;;;;;;;9.82;3.42;;;13.90;99.90;;;;;;5123081;27;20042;-64
2023/06/16 00:58:14;;;;;;;7.45;3.85;;;13.80;99.90;;;;;;5120235;27;20121;-66
2023/06/16 01:00:39;;;;;;;6.47;3.70;;;13.80;99.90;;;;;;5131561;27;20039;-66
2023/06/16 01:03:08;;;;;;;4.93;3.75;;;13.80;99.90;;;;;;5125054;27;20057;-65
2023/06/16 01:05:34;;;;;;;5.78;3.80;;;13.80;99.90;;;;;;5138759;27;20031;-65
2023/06/16 01:08:15;;;;;;;5.78;3.92;;;13.80;99.90;;;;;;5128798;27;20045;-65
2023/06/16 01:11:05;;;;;;;7.18;3.72;;;13.80;99.90;;;;;;5113885;27;20042;-64
2023/06/16 01:14:14;;;;;;;5.75;3.97;;;13.80;99.90;;;;;;5130222;27;20034;-65
2023/06/16 01:16:42;;;;;;;5.65;3.95;;;13.80;99.90;;;;;;5089219;27;20547;-65
2023/06/16 01:19:13;;;;;;;7.65;3.97;;;13.70;99.90;;;;;;5117738;27;20031;-65
2023/06/16 01:21:51;;;;;;;4.93;3.80;;;13.70;99.90;;;;;;5131368;27;20118;-66
2023/06/16 01:24:19;;;;;;;5.63;4.00;;;13.60;99.90;;;;;;5126958;27;20043;-65
2023/06/16 01:26:52;;;;;;;5.28;3.72;;;13.70;99.90;;;;;;5119771;27;20490;-64
2023/06/16 01:29:22;;;;;;;7.60;4.05;;;13.60;99.90;;;;;;5122260;27;20043;-64
2023/06/16 01:31:51;;;;;;;7.30;4.07;;;13.60;99.90;;;;;;5114716;27;20050;-65
2023/06/16 01:34:18;;;;;;;6.07;3.85;;;13.60;99.90;;;;;;5115355;27;20100;-65
2023/06/16 01:36:45;;;;;;;5.40;3.80;;;13.50;99.90;;;;;;5120472;27;20075;-65
2023/06/16 01:39:12;;;;;;;5.80;4.30;;;13.50;99.90;;;;;;5147485;27;20043;-66
2023/06/16 01:41:38;;;;;;;8.07;4.38;;;13.50;99.90;;;;;;5133325;27;20062;-64
2023/06/16 01:44:05;;;;;;;6.35;4.15;;;13.50;99.90;;;;;;5121371;27;20613;-64
2023/06/16 01:46:32;;;;;;;5.13;4.22;;;13.40;99.90;;;;;;5134463;27;20053;-66
2023/06/16 01:48:58;;;;;;;7.70;4.15;;;13.40;99.90;;;;;;5115243;27;20050;-64
2023/06/16 01:51:24;;;;;;;5.95;4.00;;;13.30;99.90;;;;;;5115923;27;20031;-65
2023/06/16 01:53:50;;;;;;;5.25;4.07;;;13.20;99.90;;;;;;5122939;27;20091;-63
2023/06/16 01:56:16;;;;;;;6.22;4.50;;;13.20;99.90;;;;;;5121109;28;20046;-65
2023/06/16 01:58:42;;;;;;;9.60;4.65;;;13.10;99.90;;;;;;5096053;28;20494;-64
2023/06/16 02:01:23;;;;;;;6.25;4.50;;;13.00;99.90;;;;;;5123026;27;20402;-66
2023/06/16 02:03:56;;;;;;;6.63;4.22;;;13.00;99.90;;;;;;5148897;27;20390;-64
2023/06/16 02:06:26;;;;;;;5.68;4.30;;;13.00;99.90;;;;;;5142310;27;20508;-66
2023/06/16 02:08:58;;;;;;;6.15;4.30;;;13.00;99.90;;;;;;5127333;27;20050;-65
2023/06/16 02:11:25;;;;;;;5.72;4.95;;;13.00;99.90;;;;;;5148900;27;20060;-66
2023/06/16 02:13:51;;;;;;;5.30;4.28;;;12.90;99.90;;;;;;5131098;27;20106;-65
2023/06/16 02:16:18;;;;;;;4.90;4.32;;;12.90;99.90;;;;;;5118768;27;20049;-65
2023/06/16 02:18:44;;;;;;;6.78;4.47;;;12.90;99.90;;;;;;5119012;27;20103;-64
2023/06/16 02:21:10;;;;;;;6.47;4.50;;;12.90;99.90;;;;;;5114486;28;20050;-64
2023/06/16 02:23:35;;;;;;;5.53;4.60;;;12.90;99.90;;;;;;5127023;27;20031;-64
2023/06/16 02:26:01;;;;;;;6.72;4.05;;;12.90;99.90;;;;;;5122679;27;20030;-63
2023/06/16 02:28:26;;;;;;;6.68;4.72;;;12.90;99.90;;;;;;5121268;27;20057;-64
2023/06/16 02:30:52;;;;;;;5.60;4.50;;;12.90;99.90;;;;;;5140994;27;20038;-64
2023/06/16 02:33:18;;;;;;;5.15;4.40;;;12.90;99.90;;;;;;5141020;27;20038;-64
2023/06/16 02:35:43;;;;;;;8.02;4.93;;;12.90;99.90;;;;;;5119993;27;20476;-64
2023/06/16 02:38:09;;;;;;;11.07;5.30;;;12.90;99.90;;;;;;5139095;27;21611;-66
2023/06/16 02:40:35;;;;;;;8.63;5.55;;;12.90;99.90;;;;;;5120808;27;20038;-64
2023/06/16 02:43:01;;;;;;;8.88;6.20;;;13.00;99.90;;;;;;5132121;27;20066;-66
2023/06/16 02:45:26;;;;;;;7.95;5.38;;;12.90;99.90;;;;;;5121414;27;20034;-64
2023/06/16 02:47:52;;;;;;;5.97;5.10;;;13.00;99.90;;;;;;5131300;27;20059;-65
2023/06/16 02:50:18;;;;;;;10.60;6.18;;;13.00;99.90;;;;;;5116921;27;20058;-64
2023/06/16 02:52:44;;;;;;;6.80;5.30;;;13.00;99.90;;;;;;5096271;27;20047;-66
2023/06/16 02:55:10;;;;;;;6.60;5.15;;;13.00;99.90;;;;;;5114171;27;20043;-66
2023/06/16 02:57:36;;;;;;;7.55;5.40;;;13.00;99.90;;;;;;5121406;27;20046;-65
2023/06/16 03:00:03;;;;;;;6.80;5.28;;;13.00;99.90;;;;;;5122661;27;20046;-65
2023/06/16 03:02:29;;;;;;;8.73;5.10;;;13.00;99.90;;;;;;5126777;27;20039;-65
2023/06/16 03:04:55;;;;;;;9.32;5.32;;;13.00;99.90;;;;;;5126573;27;20043;-64
2023/06/16 03:07:22;;;;;;;9.13;5.55;;;13.00;99.90;;;;;;5129910;27;20038;-66
2023/06/16 03:09:48;;;;;;;6.60;5.28;;;13.10;99.90;;;;;;5129424;27;20050;-64
2023/06/16 03:12:14;;;;;;;6.18;5.57;;;13.10;99.90;;;;;;5121809;27;20112;-65
2023/06/16 03:14:40;;;;;;;9.80;5.57;;;13.10;99.90;;;;;;5115985;27;20039;-64
2023/06/16 03:17:06;;;;;;;7.38;6.00;;;13.00;99.90;;;;;;5133989;27;20119;-65
2023/06/16 03:19:32;;;;;;;7.45;5.95;;;13.00;99.90;;;;;;5153717;27;20031;-64
2023/06/16 03:21:58;;;;;;;10.00;5.95;;;13.00;99.90;;;;;;5154454;27;20103;-63
2023/06/16 03:24:24;;;;;;;6.80;6.05;;;13.00;99.90;;;;;;5120352;27;20039;-64
2023/06/16 03:26:51;;;;;;;9.40;6.90;;;13.00;99.90;;;;;;5128575;27;20412;-66
2023/06/16 03:29:17;;;;;;;8.23;6.40;;;13.00;99.90;;;;;;5152910;27;20066;-66
2023/06/16 03:31:43;;;;;;;8.07;6.45;;;13.00;99.90;;;;;;5152772;27;20473;-64
2023/06/16 03:34:09;;;;;;;11.80;7.15;;;13.10;99.90;;;;;;5129370;27;20049;-65
2023/06/16 03:36:39;;;;;;;9.48;6.90;;;13.00;99.90;;;;;;5141710;27;20042;-65
2023/06/16 03:39:05;;;;;;;8.45;7.05;;;13.10;99.90;;;;;;5125697;27;20133;-64
2023/06/16 03:41:32;;;;;;;8.35;7.45;;;13.10;99.90;;;;;;5143452;27;20047;-64
2023/06/16 03:43:59;;;;;;;9.85;7.10;;;13.10;99.90;;;;;;5125198;27;20118;-66
2023/06/16 03:46:24;;;;;;;8.38;7.07;;;13.10;99.90;;;;;;5128658;27;20618;-64
2023/06/16 03:48:50;;;;;;;9.45;7.53;;;13.10;99.90;;;;;;5125216;27;20134;-64
2023/06/16 03:51:16;;;;;;;8.95;6.88;;;13.10;99.90;;;;;;5129113;27;20039;-66
2023/06/16 03:53:42;;;;;;;7.80;6.65;;;13.10;99.90;;;;;;5118766;27;20378;-65
2023/06/16 03:56:08;;;;;;;9.73;6.75;;;13.10;99.90;;;;;;5125308;27;20130;-64
2023/06/16 03:58:34;;;;;;;9.18;6.60;;;13.10;99.90;;;;;;5128894;27;20047;-64
2023/06/16 04:01:00;;;;;;;8.00;6.85;;;13.10;99.90;;;;;;5123697;27;20090;-64
2023/06/16 04:03:26;;;;;;;9.70;6.63;;;13.10;99.90;;;;;;5127102;27;20461;-64
2023/06/16 04:05:53;;;;;;;9.30;6.65;;;13.10;99.90;;;;;;5117966;27;20556;-65
2023/06/16 04:08:19;;;;;;;9.15;7.05;;;13.10;99.90;;;;;;5122885;27;20057;-66
2023/06/16 04:10:44;;;;;;;9.70;7.68;;;13.10;99.90;;;;;;5118970;27;20430;-64
2023/06/16 04:13:10;;;;;;;10.32;7.28;;;13.10;99.90;;;;;;5124039;27;20049;-66
2023/06/16 04:15:36;;;;;;;9.38;6.93;;;13.10;99.90;;;;;;5115943;27;20046;-64
2023/06/16 04:18:01;;;;;;;8.38;6.90;;;13.10;99.90;;;;;;5117847;27;20043;-64
2023/06/16 04:20:27;;;;;;;10.18;7.13;;;13.10;99.90;;;;;;5131132;27;20048;-64
2023/06/16 04:22:53;;;;;;;10.70;7.13;;;13.10;99.90;;;;;;5121833;27;20039;-66
2023/06/16 04:25:21;;;;;;;10.27;6.93;;;13.20;99.90;;;;;;5137203;27;20124;-66
2023/06/16 04:27:49;;;;;;;8.55;7.10;;;13.30;99.90;;;;;;5129955;27;20081;-64
2023/06/16 04:30:22;;;;;;;9.77;7.18;;;13.40;99.90;;;;;;5129050;27;20180;-64
2023/06/16 04:32:49;;;;;;;9.25;7.30;;;13.40;99.90;;;;;;5134275;27;20454;-64
2023/06/16 04:35:15;;;;;;;7.85;7.05;;;13.60;99.90;;;;;;5124428;27;20039;-66
2023/06/16 04:37:43;;;;;;;10.25;8.25;;;13.60;99.90;;;;;;5117866;27;20035;-66
2023/06/16 04:40:09;;;;;;;9.55;8.23;;;13.70;99.90;;;;;;5099558;27;20141;-65
2023/06/16 04:42:35;;;;;;;10.77;8.40;;;13.80;99.90;;;;;;5114019;27;20042;-65
2023/06/16 04:45:00;;;;;;;10.80;8.05;;;13.80;99.90;;;;;;5123277;27;20411;-63
2023/06/16 04:47:26;;;;;;;11.98;8.80;;;13.90;99.90;;;;;;5122054;27;20059;-66
2023/06/16 04:49:52;;;;;;;11.45;8.77;;;14.00;99.90;;;;;;5128433;27;20055;-65
2023/06/16 04:52:18;;;;;;;11.85;9.73;;;14.10;99.90;;;;;;5114933;27;20051;-66
2023/06/16 04:54:43;;;;;;;9.60;8.55;;;14.10;99.90;;;;;;5120296;27;20055;-65
2023/06/16 04:57:09;;;;;;;10.20;8.40;;;14.30;99.90;;;;;;5125634;27;20129;-66
2023/06/16 04:59:35;;;;;;;10.85;8.65;;;14.40;99.90;;;;;;5118247;27;20027;-65
2023/06/16 05:02:00;;;;;;;9.90;8.90;;;14.50;99.90;;;;;;5114226;27;20045;-65
2023/06/16 05:04:26;;;;;;;13.68;9.65;;;14.60;99.90;;;;;;5127262;27;20043;-66
2023/06/16 05:06:52;;;;;;;12.15;9.40;;;14.70;99.90;;;;;;5116331;27;20141;-65
2023/06/16 05:09:19;;;;;;;13.20;9.15;;;14.80;99.90;;;;;;5132582;27;20050;-66
2023/06/16 05:11:44;;;;;;;10.57;9.15;;;14.90;99.90;;;;;;5114595;27;20114;-64
2023/06/16 05:14:10;;;;;;;13.13;10.38;;;15.00;99.90;;;;;;5113785;27;20126;-65
2023/06/16 05:16:35;;;;;;;11.30;10.25;;;15.10;99.90;;;;;;5120317;27;20092;-65
2023/06/16 05:19:01;;;;;;;12.57;10.35;;;15.20;99.90;;;;;;5122941;27;20035;-65
2023/06/16 05:21:27;;;;;;;18.67;11.45;;;15.40;99.90;;;;;;5125059;27;20034;-66
2023/06/16 05:23:53;;;;;;;13.23;11.82;;;15.40;99.90;;;;;;5118649;27;20038;-64
2023/06/16 05:26:22;;;;;;;11.77;10.57;;;15.60;99.90;;;;;;5115242;27;20440;-64
2023/06/16 05:28:48;;;;;;;13.40;11.75;;;15.70;99.90;;;;;;5142890;27;20046;-66
2023/06/16 05:31:14;;;;;;;16.05;13.02;;;15.90;99.90;;;;;;5117987;27;20397;-64
2023/06/16 05:33:39;;;;;;;15.57;13.10;;;15.90;99.90;;;;;;5116663;27;20045;-64
2023/06/16 05:36:05;;;;;;;14.75;13.00;;;16.10;99.90;;;;;;5139384;27;20505;-66
2023/06/16 05:38:31;;;;;;;16.48;13.73;;;16.20;99.90;;;;;;5123650;27;20388;-66
2023/06/16 05:40:57;;;;;;;16.88;13.80;;;16.40;99.90;;;;;;5136990;27;20041;-65
2023/06/16 05:43:23;;;;;;;15.55;13.93;;;16.50;99.90;;;;;;5121945;27;20038;-63
2023/06/16 05:45:48;;;;;;;16.15;13.80;;;16.70;99.90;;;;;;5100923;27;20450;-63
2023/06/16 05:48:14;;;;;;;15.77;14.07;;;16.80;99.90;;;;;;5140022;27;20050;-65
2023/06/16 05:50:40;;;;;;;15.35;13.20;;;16.90;99.90;;;;;;5125334;27;20159;-65
2023/06/16 05:53:05;;;;;;;16.35;14.38;;;17.00;99.90;;;;;;5132434;27;20035;-63
2023/06/16 05:55:31;;;;;;;17.55;14.63;;;17.10;99.90;;;;;;5130347;27;20037;-64
2023/06/16 05:57:57;;;;;;;15.68;13.68;;;17.30;99.90;;;;;;5114384;27;20024;-65
2023/06/16 06:00:23;;;;;;;18.88;14.35;;;17.40;99.90;;;;;;5132562;27;20066;-66
2023/06/16 06:02:49;;;;;;;16.48;14.48;;;17.40;99.90;;;;;;5115805;27;20035;-64
2023/06/16 06:05:15;;;;;;;14.55;12.80;;;17.40;99.90;;;;;;5134216;27;20035;-64
2023/06/16 06:07:41;;;;;;;16.95;13.85;;;17.50;99.90;;;;;;5114998;27;20039;-65
2023/06/16 06:10:07;;;;;;;14.77;13.25;;;17.70;99.90;;;;;;5133216;27;20404;-65
2023/06/16 06:12:32;;;;;;;15.63;13.98;;;17.80;99.90;;;;;;5150644;27;20042;-64
2023/06/16 06:14:58;;;;;;;13.82;12.43;;;17.80;99.90;;;;;;5113330;27;20039;-64
2023/06/16 06:17:24;;;;;;;14.48;12.98;;;18.00;99.90;;;;;;5112646;27;20039;-65
2023/06/16 06:19:50;;;;;;;15.65;11.02;;;18.20;99.90;;;;;;5136431;27;20031;-65
2023/06/16 06:22:15;;;;;;;12.60;11.25;;;18.30;99.90;;;;;;5131075;27;20024;-66
2023/06/16 06:24:41;;;;;;;14.63;11.52;;;18.50;99.90;;;;;;5112795;27;20421;-65
2023/06/16 06:27:10;;;;;;;12.10;10.52;;;18.60;99.90;;;;;;5134565;27;20034;-64
2023/06/16 06:29:36;;;;;;;12.07;9.60;;;18.70;99.90;;;;;;5132715;27;21615;-65
2023/06/16 06:32:04;;;;;;;11.32;10.18;;;18.90;99.90;;;;;;5114253;27;20489;-64
2023/06/16 06:34:30;;;;;;;11.00;9.90;;;19.10;99.90;;;;;;5112045;27;20389;-64
2023/06/16 06:36:56;;;;;;;10.20;9.20;;;19.20;99.90;;;;;;5126066;27;20042;-62
2023/06/16 06:39:22;;;;;;;10.43;9.38;;;19.20;99.90;;;;;;5115658;27;20035;-64
2023/06/16 06:41:47;;;;;;;10.90;9.10;;;19.30;99.90;;;;;;5120436;27;20449;-65
2023/06/16 06:44:13;;;;;;;9.90;8.80;;;19.40;99.90;;;;;;5136356;27;20118;-65
2023/06/16 06:46:39;;;;;;;10.38;8.40;;;19.40;99.90;;;;;;5119651;27;20031;-65
2023/06/16 06:49:04;;;;;;;9.10;7.20;;;19.50;99.90;;;;;;5134692;27;20115;-65
2023/06/16 06:51:30;;;;;;;8.60;7.28;;;19.70;99.90;;;;;;5119335;27;20084;-65
2023/06/16 06:53:55;;;;;;;10.57;6.55;;;19.70;99.90;;;;;;5115685;27;20076;-66
2023/06/16 06:56:22;;;;;;;6.22;5.65;;;19.90;99.90;;;;;;5142214;27;20031;-65
2023/06/16 06:58:48;;;;;;;8.15;5.97;;;20.00;99.40;;;;;;5136190;27;20049;-65
2023/06/16 07:01:14;;;;;;;7.28;6.60;;;20.20;99.00;;;;;;5145149;27;20030;-66
2023/06/16 07:03:40;;;;;;;7.97;6.43;;;20.30;98.50;;;;;;5117083;27;20061;-65
2023/06/16 07:06:06;;;;;;;9.05;6.40;;;20.40;97.50;;;;;;5134579;27;20066;-66
2023/06/16 07:08:31;;;;;;;7.32;6.60;;;20.50;97.50;;;;;;5155424;27;20037;-65
2023/06/16 07:10:58;;;;;;;8.90;6.25;;;20.60;96.60;;;;;;5123986;27;20043;-64
2023/06/16 07:13:24;;;;;;;6.80;6.10;;;20.60;95.50;;;;;;5119468;27;20100;-65
2023/06/16 07:15:50;;;;;;;8.98;6.07;;;20.70;96.00;;;;;;5099443;27;20043;-66
2023/06/16 07:18:15;;;;;;;6.75;6.05;;;20.90;96.30;;;;;;5120045;27;20432;-65
2023/06/16 07:20:41;;;;;;;6.40;5.80;;;21.00;95.40;;;;;;5136176;27;20077;-65
2023/06/16 07:23:07;;;;;;;6.90;6.10;;;21.00;94.50;;;;;;5132979;27;20484;-65
2023/06/16 07:25:36;;;;;;;8.07;5.53;;;21.00;94.00;;;;;;5116813;27;20149;-64
2023/06/16 07:28:03;;;;;;;7.03;5.75;;;21.20;94.50;;;;;;5119455;27;20042;-64
2023/06/16 07:30:29;;;;;;;7.47;4.85;;;21.40;94.30;;;;;;5132871;27;20065;-64
2023/06/16 07:32:55;;;;;;;6.53;4.75;;;21.50;94.10;;;;;;5135746;27;20114;-65
2023/06/16 07:35:21;;;;;;;8.05;5.63;;;21.60;93.50;;;;;;5116718;27;20619;-66
2023/06/16 07:37:47;;;;;;;5.95;5.05;;;21.50;92.20;;;;;;5118004;27;20046;-66
2023/06/16 07:40:13;;;;;;;6.55;5.43;;;21.70;92.90;;;;;;5115149;27;20043;-66
2023/06/16 07:42:45;;;;;;;6.40;5.25;;;21.70;91.50;;;;;;5116168;27;20557;-66
2023/06/16 07:45:12;;;;;;;5.78;4.38;;;21.80;92.00;;;;;;5119884;27;20155;-66
2023/06/16 07:47:39;;;;;;;5.03;4.53;;;21.90;91.30;;;;;;5115214;27;20452;-66
2023/06/16 07:50:07;;;;;;;5.10;4.60;;;22.00;91.00;;;;;;5118024;27;20168;-65
2023/06/16 07:52:33;;;;;;;7.30;5.07;;;22.20;90.90;;;;;;5114871;27;20060;-66
2023/06/16 07:54:59;;;;;;;5.97;4.82;;;22.30;91.20;;;;;;5128598;27;20046;-64
2023/06/16 07:57:25;;;;;;;6.20;4.60;;;22.40;90.30;;;;;;5115226;27;20043;-66
2023/06/16 07:59:51;;;;;;;8.25;4.38;;;22.50;90.40;;;;;;5115221;27;20053;-66
2023/06/16 08:02:16;;;;;;;5.25;4.72;;;22.70;90.50;;;;;;5152921;27;20038;-66
2023/06/16 08:04:42;;;;;;;4.93;4.20;;;22.70;88.70;;;;;;5135166;27;20041;-66
2023/06/16 08:07:08;;;;;;;4.28;3.88;;;22.80;88.60;;;;;;5131388;27;20041;-66
2023/06/16 08:09:33;;;;;;;6.68;4.05;;;22.80;87.00;;;;;;5135693;27;20110;-64
2023/06/16 08:11:59;;;;;;;5.38;4.22;;;22.80;86.70;;;;;;5119894;27;20051;-66
2023/06/16 08:14:26;;;;;;;6.38;3.90;;;22.90;88.10;;;;;;5122803;27;20035;-66
2023/06/16 08:16:51;;;;;;;5.30;3.92;;;23.00;86.00;;;;;;5126285;27;20051;-65
2023/06/16 08:19:17;;;;;;;5.60;3.85;;;23.10;85.70;;;;;;5120484;27;20435;-66
2023/06/16 08:21:42;;;;;;;8.98;4.00;;;23.20;85.80;;;;;;5131502;27;20447;-65
2023/06/16 08:24:08;;;;;;;5.57;3.72;;;23.30;86.00;;;;;;5114407;27;20162;-65
2023/06/16 08:26:34;;;;;;;4.43;4.03;;;23.40;85.10;;;;;;5113713;27;20126;-64
2023/06/16 08:28:59;;;;;;;4.15;3.75;;;23.50;84.70;;;;;;5114603;27;20070;-65
2023/06/16 08:31:27;;;;;;;4.88;4.30;;;23.50;84.90;;;;;;5119446;27;20177;-66
2023/06/16 08:33:54;;;;;;;6.25;4.25;;;23.50;83.60;;;;;;5137975;27;20045;-65
2023/06/16 08:36:21;;;;;;;4.50;4.10;;;23.50;82.80;;;;;;5113727;27;20101;-65
2023/06/16 08:38:48;;;;;;;4.55;4.05;;;23.70;83.90;;;;;;5149327;27;20053;-66
2023/06/16 08:41:16;;;;;;;6.15;3.58;;;23.80;83.00;;;;;;5106263;27;20059;-64
2023/06/16 08:43:43;;;;;;;5.53;4.43;;;23.90;83.90;;;;;;5113557;27;20042;-65
2023/06/16 08:46:10;;;;;;;6.03;3.78;;;24.00;82.50;;;;;;5124167;27;20041;-66
2023/06/16 08:48:39;;;;;;;4.78;4.07;;;24.10;82.60;;;;;;5127255;27;20059;-65
2023/06/16 08:51:09;;;;;;;4.85;4.40;;;24.30;82.80;;;;;;5123865;27;20050;-66
2023/06/16 08:53:38;;;;;;;5.82;4.07;;;24.40;82.70;;;;;;5115601;27;20486;-65
2023/06/16 08:56:07;;;;;;;4.53;3.63;;;24.40;82.20;;;;;;5117111;27;20039;-66
2023/06/16 08:58:37;;;;;;;4.68;4.15;;;24.60;81.10;;;;;;5118199;27;20031;-65
2023/06/16 09:01:04;;;;;;;4.22;3.75;;;24.40;79.10;;;;;;5117522;27;20378;-66
2023/06/16 09:03:33;;;;;;;4.78;3.72;;;24.40;79.10;;;;;;5114563;27;20047;-64
2023/06/16 09:06:02;;;;;;;4.10;3.70;;;24.40;78.40;;;;;;5136191;27;20035;-66
2023/06/16 09:08:29;;;;;;;3.90;3.60;;;24.60;77.00;;;;;;5149180;27;20038;-66
2023/06/16 09:10:56;;;;;;;4.20;3.80;;;24.60;78.50;;;;;;5133143;27;20050;-66
2023/06/16 09:13:23;;;;;;;3.90;3.50;;;24.70;77.70;;;;;;5123593;27;20073;-66
2023/06/16 09:15:49;;;;;;;4.93;4.00;;;24.80;77.30;;;;;;5147335;27;20032;-66
2023/06/16 09:18:15;;;;;;;5.72;4.03;;;25.10;79.10;;;;;;5119671;27;20544;-65
2023/06/16 09:20:44;;;;;;;5.82;3.40;;;25.20;78.40;;;;;;5142922;27;20027;-65
2023/06/16 09:23:10;;;;;;;3.90;3.47;;;25.30;78.20;;;;;;5115639;27;20066;-64
2023/06/16 09:25:38;;;;;;;4.50;3.67;;;25.40;77.40;;;;;;5113445;27;20031;-65
2023/06/16 09:28:09;;;;;;;3.88;3.58;;;25.50;77.20;;;;;;5114689;27;20519;-67
2023/06/16 09:30:35;;;;;;;4.88;3.30;;;25.70;75.50;;;;;;5103660;27;20039;-65
2023/06/16 09:33:01;;;;;;;4.70;3.80;;;25.60;75.40;;;;;;5113386;27;20035;-66
2023/06/16 09:35:29;;;;;;;6.00;3.85;;;25.80;76.10;;;;;;5116072;27;20421;-65
2023/06/16 09:38:00;;;;;;;5.10;4.22;;;25.90;76.20;;;;;;5133782;27;20051;-66
2023/06/16 09:40:28;;;;;;;11.80;4.40;;;26.10;76.00;;;;;;5127737;27;20034;-64
2023/06/16 09:43:00;;;;;;;5.75;4.22;;;25.80;75.20;;;;;;5128966;27;20118;-65
2023/06/16 09:45:29;;;;;;;4.30;3.65;;;26.00;74.90;;;;;;5113594;28;20532;-65
2023/06/16 09:47:56;;;;;;;5.38;3.33;;;25.90;73.20;;;;;;5116110;27;20078;-66
2023/06/16 09:50:25;;;;;;;3.97;3.47;;;26.00;74.00;;;;;;5113202;28;20069;-65
2023/06/16 09:52:53;;;;;;;6.75;3.75;;;26.10;73.40;;;;;;5119613;27;20092;-65
2023/06/16 09:55:19;;;;;;;5.95;3.72;;;26.20;73.80;;;;;;5115290;27;20035;-65
2023/06/16 09:57:46;;;;;;;6.28;3.20;;;26.40;73.90;;;;;;5114591;27;20071;-65
2023/06/16 10:00:16;;;;;;;4.85;3.83;;;26.30;71.70;;;;;;5136160;27;20039;-65
2023/06/16 10:02:48;;;;;;;4.13;3.72;;;26.40;71.90;;;;;;5144744;27;20027;-65
2023/06/16 10:05:18;;;;;;;5.22;3.47;;;26.40;70.50;;;;;;5133239;27;20122;-66
2023/06/16 10:07:56;;;;;;;4.95;4.45;;;26.50;71.40;;;;;;5118345;27;20058;-65
2023/06/16 10:10:28;;;;;;;5.38;3.88;;;26.60;70.30;;;;;;5112504;27;20079;-66
2023/06/16 10:12:55;;;;;;;5.90;3.70;;;26.50;70.50;;;;;;5118525;27;20080;-67
2023/06/16 10:15:27;;;;;;;4.88;3.80;;;26.40;69.80;;;;;;5123142;27;20051;-65
2023/06/16 10:18:03;;;;;;;5.22;3.15;;;26.60;70.50;;;;;;5135828;27;20093;-66
2023/06/16 10:20:32;;;;;;;5.80;3.65;;;26.70;68.40;;;;;;5114142;27;20043;-65
2023/06/16 10:23:00;;;;;;;5.10;3.83;;;26.90;70.10;;;;;;5118929;27;20105;-66
2023/06/16 10:25:25;;;;;;;6.30;3.28;;;27.00;70.20;;;;;;5136506;27;20084;-66
2023/06/16 10:27:53;;;;;;;6.97;3.83;;;27.10;70.80;;;;;;5129459;27;20043;-65
2023/06/16 10:30:19;;;;;;;6.43;3.17;;;27.10;70.60;;;;;;5113637;27;20448;-65
2023/06/16 10:32:49;;;;;;;10.40;3.25;;;27.10;71.00;;;;;;5126230;27;20046;-66
2023/06/16 10:35:16;;;;;;;3.85;3.05;;;27.30;68.80;;;;;;5133779;27;20099;-66
2023/06/16 10:37:42;;;;;;;3.70;3.15;;;27.20;68.70;;;;;;5125510;27;20106;-65
2023/06/16 10:40:12;;;;;;;4.32;3.20;;;27.10;66.30;;;;;;5115443;27;20039;-66
2023/06/16 10:42:39;;;;;;;5.95;3.15;;;27.00;67.10;;;;;;5138377;27;20088;-66
2023/06/16 10:45:25;;;;;;;6.70;3.17;;;27.30;68.90;;;;;;5131090;27;20050;-66
2023/06/16 10:48:10;;;;;;;3.40;3.10;;;27.10;67.10;;;;;;5133002;27;20513;-66
2023/06/16 10:50:39;;;;;;;3.25;2.85;;;27.10;66.60;;;;;;5130773;27;20421;-65
2023/06/16 10:53:16;;;;;;;4.85;2.58;;;27.10;65.40;;;;;;5129136;27;20185;-64
2023/06/16 10:55:45;;;;;;;3.55;3.00;;;27.10;65.00;;;;;;5142200;27;20054;-64
2023/06/16 10:58:16;;;;;;;4.30;2.72;;;27.20;65.20;;;;;;5154799;27;20043;-64
2023/06/16 11:00:42;;;;;;;3.42;2.58;;;27.20;64.50;;;;;;5129480;27;20035;-64
2023/06/16 11:03:08;;;;;;;5.32;3.53;;;27.10;62.90;;;;;;5123151;27;20141;-65
2023/06/16 11:05:38;;;;;;;4.70;3.10;;;27.30;62.80;;;;;;5130403;27;20063;-64
2023/06/16 11:08:08;;;;;;;4.03;2.80;;;27.20;60.50;;;;;;5115748;27;20080;-65
2023/06/16 11:10:54;;;;;;;3.13;2.50;;;27.00;61.80;;;;;;5125395;27;20852;-66
2023/06/16 11:13:33;;;;;;;4.03;2.70;;;27.00;58.30;;;;;;5122314;27;20481;-65
2023/06/16 11:16:00;;;;;;;3.28;2.63;;;26.90;59.90;;;;;;5127204;27;20048;-64
2023/06/16 11:18:27;;;;;;;3.08;2.63;;;26.90;59.10;;;;;;5124371;27;20058;-65
2023/06/16 11:21:00;;;;;;;4.57;2.72;;;26.90;59.70;;;;;;5142897;27;20046;-65
2023/06/16 11:23:26;;;;;;;4.80;2.75;;;26.80;58.40;;;;;;5145564;27;20035;-65
2023/06/16 11:25:53;;;;;;;3.17;2.40;;;26.60;58.70;;;;;;5155021;27;20114;-64
2023/06/16 11:28:20;;;;;;;4.97;2.47;;;26.60;59.30;;;;;;5112315;27;20057;-66
2023/06/16 11:30:48;;;;;;;3.97;2.50;;;26.70;59.40;;;;;;5127757;27;20058;-65
2023/06/16 11:33:19;;;;;;;3.58;2.47;;;26.80;59.30;;;;;;5131286;27;20047;-64
2023/06/16 11:35:45;;;;;;;8.50;2.80;;;26.80;58.00;;;;;;5135385;27;20409;-64
2023/06/16 11:38:11;;;;;;;5.55;2.60;;;26.90;59.60;;;;;;5131973;27;20151;-64
2023/06/16 11:40:36;;;;;;;5.32;2.90;;;26.90;59.60;;;;;;5120042;27;20490;-64
2023/06/16 11:43:04;;;;;;;5.50;2.50;;;26.90;58.80;;;;;;5120660;27;20035;-66
2023/06/16 11:45:36;;;;;;;5.47;2.63;;;26.70;58.20;;;;;;5149122;27;20043;-66
2023/06/16 11:48:04;;;;;;;3.05;2.30;;;26.70;58.40;;;;;;5127656;27;20058;-64
2023/06/16 11:50:29;;;;;;;3.72;2.50;;;26.70;59.00;;;;;;5132556;27;20043;-65
2023/06/16 11:52:56;;;;;;;4.85;2.30;;;26.70;59.50;;;;;;5123667;27;20034;-64
2023/06/16 11:55:22;;;;;;;3.88;2.60;;;26.60;58.10;;;;;;5107660;27;20038;-64
2023/06/16 11:57:48;;;;;;;5.25;2.70;;;26.50;58.70;;;;;;5120796;27;20050;-66
2023/06/16 12:00:15;;;;;;;2.80;2.55;;;26.40;57.60;;;;;;5143470;27;20050;-65
2023/06/16 12:02:45;;;;;;;3.08;2.67;;;26.40;59.10;;;;;;5134949;27;20528;-65
2023/06/16 12:05:26;;;;;;;2.88;2.42;;;26.40;58.60;;;;;;5130466;27;20057;-67
2023/06/16 12:07:52;;;;;;;4.95;2.85;;;26.40;59.30;;;;;;5138158;27;20125;-65
2023/06/16 12:10:18;;;;;;;4.82;2.38;;;26.30;59.00;;;;;;5126253;27;20168;-65
2023/06/16 12:12:45;;;;;;;3.85;2.60;;;26.30;57.50;;;;;;5114469;27;20046;-68
2023/06/16 12:15:16;;;;;;;3.78;2.33;;;26.30;57.60;;;;;;5146889;27;20046;-65
2023/06/16 12:17:42;;;;;;;4.28;2.60;;;26.20;57.00;;;;;;5120464;27;20047;-65
2023/06/16 12:20:10;;;;;;;4.40;2.42;;;26.10;56.00;;;;;;5123626;27;20393;-65
2023/06/16 12:22:39;;;;;;;4.50;2.50;;;26.00;56.60;;;;;;5097146;27;20031;-66
2023/06/16 12:25:16;;;;;;;3.92;2.40;;;26.00;57.90;;;;;;5117520;27;20031;-66
2023/06/16 12:27:43;;;;;;;3.75;2.72;;;26.00;57.40;;;;;;5144745;27;20035;-66
2023/06/16 12:30:10;;;;;;;4.38;3.03;;;26.00;56.90;;;;;;5127182;27;20056;-65
2023/06/16 12:32:36;;;;;;;5.95;2.65;;;25.90;57.40;;;;;;5132317;27;20087;-66
2023/06/16 12:35:01;;;;;;;4.07;2.55;;;26.00;57.40;;;;;;5123494;27;20031;-64
2023/06/16 12:37:28;;;;;;;3.70;2.92;;;25.90;56.60;;;;;;5152498;27;20083;-66
2023/06/16 12:40:11;;;;;;;4.93;2.20;;;25.90;57.50;;;;;;5144564;27;20038;-65
2023/06/16 12:42:37;;;;;;;5.88;2.85;;;25.90;56.20;;;;;;5133084;27;20041;-66
2023/06/16 12:45:06;;;;;;;3.47;2.35;;;25.90;56.90;;;;;;5138526;27;20058;-64